sensor_id;sensor_type;location;lat;lon;timestamp;pressure;altitude;pressure_sealevel;temperature;humidity
64632;BME280;58358;50.936;0.246;2023-06-04T00:00:54;101666.39;;;7.13;95.56
64632;BME280;58358;50.936;0.246;2023-06-04T00:03:20;101674.91;;;8.12;94.06
64632;BME280;58358;50.936;0.246;2023-06-04T00:05:45;101669.06;;;8.38;91.90
64632;BME280;58358;50.936;0.246;2023-06-04T00:08:11;101664.95;;;8.48;91.07
64632;BME280;58358;50.936;0.246;2023-06-04T00:10:37;101664.74;;;8.11;92.34
64632;BME280;58358;50.936;0.246;2023-06-04T00:13:02;101663.80;;;8.06;92.77
64632;BME280;58358;50.936;0.246;2023-06-04T00:15:28;101658.30;;;7.75;94.31
64632;BME280;58358;50.936;0.246;2023-06-04T00:17:53;101660.62;;;7.60;95.21
64632;BME280;58358;50.936;0.246;2023-06-04T00:20:19;101659.69;;;7.56;96.96
64632;BME280;58358;50.936;0.246;2023-06-04T00:22:44;101661.89;;;7.98;96.54
64632;BME280;58358;50.936;0.246;2023-06-04T00:25:10;101671.04;;;8.39;91.82
64632;BME280;58358;50.936;0.246;2023-06-04T00:27:35;101668.70;;;8.42;92.61
64632;BME280;58358;50.936;0.246;2023-06-04T00:30:02;101666.48;;;8.82;91.53
64632;BME280;58358;50.936;0.246;2023-06-04T00:32:27;101659.72;;;7.67;95.92
64632;BME280;58358;50.936;0.246;2023-06-04T00:34:55;101658.82;;;7.72;96.68
64632;BME280;58358;50.936;0.246;2023-06-04T00:37:18;101657.73;;;8.13;94.09
64632;BME280;58358;50.936;0.246;2023-06-04T00:39:44;101658.72;;;8.33;93.22
64632;BME280;58358;50.936;0.246;2023-06-04T00:42:10;101651.00;;;8.54;91.18
64632;BME280;58358;50.936;0.246;2023-06-04T00:44:35;101655.65;;;8.04;95.37
64632;BME280;58358;50.936;0.246;2023-06-04T00:47:01;101652.50;;;8.34;91.14
64632;BME280;58358;50.936;0.246;2023-06-04T00:49:26;101652.75;;;8.91;88.67
64632;BME280;58358;50.936;0.246;2023-06-04T00:51:52;101651.86;;;7.74;89.87
64632;BME280;58358;50.936;0.246;2023-06-04T00:54:19;101649.10;;;7.89;93.54
64632;BME280;58358;50.936;0.246;2023-06-04T00:56:44;101647.92;;;8.80;90.84
64632;BME280;58358;50.936;0.246;2023-06-04T00:59:09;101647.26;;;8.71;88.68
64632;BME280;58358;50.936;0.246;2023-06-04T01:01:41;101646.89;;;8.42;89.19
64632;BME280;58358;50.936;0.246;2023-06-04T01:04:02;101650.36;;;8.42;88.75
64632;BME280;58358;50.936;0.246;2023-06-04T01:06:30;101650.31;;;8.73;90.35
64632;BME280;58358;50.936;0.246;2023-06-04T01:08:52;101651.14;;;8.45;87.75
64632;BME280;58358;50.936;0.246;2023-06-04T01:11:18;101650.75;;;8.49;89.99
64632;BME280;58358;50.936;0.246;2023-06-04T01:13:43;101649.27;;;8.02;93.97
64632;BME280;58358;50.936;0.246;2023-06-04T01:16:11;101637.50;;;7.88;97.79
64632;BME280;58358;50.936;0.246;2023-06-04T01:18:38;101634.91;;;7.96;98.13
64632;BME280;58358;50.936;0.246;2023-06-04T01:21:02;101637.22;;;7.45;99.97
64632;BME280;58358;50.936;0.246;2023-06-04T01:23:31;101638.12;;;7.56;99.40
64632;BME280;58358;50.936;0.246;2023-06-04T01:25:52;101640.57;;;7.18;100.00
64632;BME280;58358;50.936;0.246;2023-06-04T01:28:17;101641.34;;;7.69;100.00
64632;BME280;58358;50.936;0.246;2023-06-04T01:30:45;101635.79;;;7.49;100.00
64632;BME280;58358;50.936;0.246;2023-06-04T01:33:10;101631.81;;;7.97;100.00
64632;BME280;58358;50.936;0.246;2023-06-04T01:35:34;101627.40;;;8.10;100.00
64632;BME280;58358;50.936;0.246;2023-06-04T01:38:00;101629.83;;;7.94;99.95
64632;BME280;58358;50.936;0.246;2023-06-04T01:40:25;101633.26;;;8.24;98.45
64632;BME280;58358;50.936;0.246;2023-06-04T01:42:51;101631.83;;;8.14;95.89
64632;BME280;58358;50.936;0.246;2023-06-04T01:45:17;101634.62;;;7.92;97.77
64632;BME280;58358;50.936;0.246;2023-06-04T01:47:42;101634.64;;;8.15;97.61
64632;BME280;58358;50.936;0.246;2023-06-04T01:50:09;101630.05;;;8.06;97.56
64632;BME280;58358;50.936;0.246;2023-06-04T01:52:34;101626.67;;;7.59;100.00
64632;BME280;58358;50.936;0.246;2023-06-04T01:54:59;101626.79;;;7.30;99.60
64632;BME280;58358;50.936;0.246;2023-06-04T01:57:25;101627.51;;;7.65;100.00
64632;BME280;58358;50.936;0.246;2023-06-04T01:59:51;101629.64;;;7.62;100.00
64632;BME280;58358;50.936;0.246;2023-06-04T02:02:17;101628.11;;;7.70;100.00
64632;BME280;58358;50.936;0.246;2023-06-04T02:04:42;101626.09;;;7.96;100.00
64632;BME280;58358;50.936;0.246;2023-06-04T02:07:09;101623.82;;;8.29;98.09
64632;BME280;58358;50.936;0.246;2023-06-04T02:09:34;101613.91;;;7.49;99.34
64632;BME280;58358;50.936;0.246;2023-06-04T02:12:00;101620.75;;;7.56;99.84
64632;BME280;58358;50.936;0.246;2023-06-04T02:14:25;101618.97;;;7.20;100.00
64632;BME280;58358;50.936;0.246;2023-06-04T02:16:52;101617.96;;;7.37;100.00
64632;BME280;58358;50.936;0.246;2023-06-04T02:19:17;101621.61;;;7.72;100.00
64632;BME280;58358;50.936;0.246;2023-06-04T02:21:43;101625.52;;;8.05;100.00
64632;BME280;58358;50.936;0.246;2023-06-04T02:24:08;101623.33;;;7.18;100.00
64632;BME280;58358;50.936;0.246;2023-06-04T02:26:34;101625.19;;;7.45;100.00
64632;BME280;58358;50.936;0.246;2023-06-04T02:28:59;101631.59;;;7.81;100.00
64632;BME280;58358;50.936;0.246;2023-06-04T02:31:25;101631.09;;;7.81;100.00
64632;BME280;58358;50.936;0.246;2023-06-04T02:33:51;101631.75;;;7.42;100.00
64632;BME280;58358;50.936;0.246;2023-06-04T02:36:16;101635.24;;;7.82;100.00
64632;BME280;58358;50.936;0.246;2023-06-04T02:38:42;101637.26;;;8.32;100.00
64632;BME280;58358;50.936;0.246;2023-06-04T02:41:07;101628.74;;;7.55;100.00
64632;BME280;58358;50.936;0.246;2023-06-04T02:43:33;101631.19;;;7.13;100.00
64632;BME280;58358;50.936;0.246;2023-06-04T02:45:58;101631.00;;;6.97;100.00
64632;BME280;58358;50.936;0.246;2023-06-04T02:48:24;101632.73;;;7.28;100.00
64632;BME280;58358;50.936;0.246;2023-06-04T02:50:50;101632.95;;;7.49;100.00
64632;BME280;58358;50.936;0.246;2023-06-04T02:53:14;101635.95;;;7.56;100.00
64632;BME280;58358;50.936;0.246;2023-06-04T02:55:40;101631.41;;;7.26;100.00
64632;BME280;58358;50.936;0.246;2023-06-04T02:58:06;101631.37;;;7.32;100.00
64632;BME280;58358;50.936;0.246;2023-06-04T03:00:31;101632.30;;;7.05;100.00
64632;BME280;58358;50.936;0.246;2023-06-04T03:02:57;101630.88;;;6.75;100.00
64632;BME280;58358;50.936;0.246;2023-06-04T03:05:23;101636.03;;;6.76;100.00
64632;BME280;58358;50.936;0.246;2023-06-04T03:07:49;101639.26;;;6.79;100.00
64632;BME280;58358;50.936;0.246;2023-06-04T03:10:15;101635.63;;;7.19;100.00
64632;BME280;58358;50.936;0.246;2023-06-04T03:12:40;101636.86;;;7.79;100.00
64632;BME280;58358;50.936;0.246;2023-06-04T03:15:07;101634.85;;;6.82;100.00
64632;BME280;58358;50.936;0.246;2023-06-04T03:17:31;101631.49;;;7.03;100.00
64632;BME280;58358;50.936;0.246;2023-06-04T03:19:57;101633.24;;;6.56;100.00
64632;BME280;58358;50.936;0.246;2023-06-04T03:22:23;101634.48;;;7.13;100.00
64632;BME280;58358;50.936;0.246;2023-06-04T03:24:49;101635.43;;;6.85;100.00
64632;BME280;58358;50.936;0.246;2023-06-04T03:27:14;101634.96;;;6.95;100.00
64632;BME280;58358;50.936;0.246;2023-06-04T03:29:39;101631.76;;;6.81;100.00
64632;BME280;58358;50.936;0.246;2023-06-04T03:32:05;101639.87;;;6.96;100.00
64632;BME280;58358;50.936;0.246;2023-06-04T03:34:30;101640.75;;;7.07;100.00
64632;BME280;58358;50.936;0.246;2023-06-04T03:36:56;101639.61;;;7.37;100.00
64632;BME280;58358;50.936;0.246;2023-06-04T03:39:22;101637.14;;;7.24;100.00
64632;BME280;58358;50.936;0.246;2023-06-04T03:41:47;101642.34;;;6.93;100.00
64632;BME280;58358;50.936;0.246;2023-06-04T03:44:13;101640.96;;;7.23;100.00
64632;BME280;58358;50.936;0.246;2023-06-04T03:46:38;101639.43;;;7.28;100.00
64632;BME280;58358;50.936;0.246;2023-06-04T03:49:04;101638.58;;;6.66;100.00
64632;BME280;58358;50.936;0.246;2023-06-04T03:51:29;101636.44;;;7.79;100.00
64632;BME280;58358;50.936;0.246;2023-06-04T03:53:55;101636.79;;;6.87;100.00
64632;BME280;58358;50.936;0.246;2023-06-04T03:56:20;101636.29;;;7.07;100.00
64632;BME280;58358;50.936;0.246;2023-06-04T03:58:46;101633.07;;;7.21;100.00
64632;BME280;58358;50.936;0.246;2023-06-04T04:01:11;101634.91;;;7.50;100.00
64632;BME280;58358;50.936;0.246;2023-06-04T04:03:37;101634.95;;;6.95;100.00
64632;BME280;58358;50.936;0.246;2023-06-04T04:06:03;101638.95;;;6.95;100.00
64632;BME280;58358;50.936;0.246;2023-06-04T04:08:29;101637.13;;;7.20;100.00
64632;BME280;58358;50.936;0.246;2023-06-04T04:10:54;101639.09;;;7.27;100.00
64632;BME280;58358;50.936;0.246;2023-06-04T04:13:20;101637.41;;;7.09;100.00
64632;BME280;58358;50.936;0.246;2023-06-04T04:15:45;101639.71;;;7.63;100.00
64632;BME280;58358;50.936;0.246;2023-06-04T04:18:11;101637.58;;;7.31;100.00
64632;BME280;58358;50.936;0.246;2023-06-04T04:20:36;101636.51;;;7.21;100.00
64632;BME280;58358;50.936;0.246;2023-06-04T04:23:01;101634.37;;;6.96;100.00
64632;BME280;58358;50.936;0.246;2023-06-04T04:25:27;101636.27;;;7.10;100.00
64632;BME280;58358;50.936;0.246;2023-06-04T04:27:53;101635.16;;;7.21;100.00
64632;BME280;58358;50.936;0.246;2023-06-04T04:30:18;101636.72;;;7.92;100.00
64632;BME280;58358;50.936;0.246;2023-06-04T04:32:43;101636.00;;;7.83;100.00
64632;BME280;58358;50.936;0.246;2023-06-04T04:35:09;101633.67;;;7.25;100.00
64632;BME280;58358;50.936;0.246;2023-06-04T04:37:35;101632.81;;;7.83;100.00
64632;BME280;58358;50.936;0.246;2023-06-04T04:40:01;101633.28;;;7.16;100.00
64632;BME280;58358;50.936;0.246;2023-06-04T04:42:25;101633.38;;;7.22;100.00
64632;BME280;58358;50.936;0.246;2023-06-04T04:44:51;101635.61;;;7.44;100.00
64632;BME280;58358;50.936;0.246;2023-06-04T04:47:17;101636.77;;;7.13;100.00
64632;BME280;58358;50.936;0.246;2023-06-04T04:49:42;101634.82;;;7.76;100.00
64632;BME280;58358;50.936;0.246;2023-06-04T04:52:08;101633.34;;;7.22;100.00
64632;BME280;58358;50.936;0.246;2023-06-04T04:54:33;101639.15;;;7.30;100.00
64632;BME280;58358;50.936;0.246;2023-06-04T04:56:58;101635.58;;;7.51;100.00
64632;BME280;58358;50.936;0.246;2023-06-04T04:59:23;101637.98;;;6.73;100.00
64632;BME280;58358;50.936;0.246;2023-06-04T05:01:49;101633.15;;;7.59;100.00
64632;BME280;58358;50.936;0.246;2023-06-04T05:04:14;101634.73;;;7.33;100.00
64632;BME280;58358;50.936;0.246;2023-06-04T05:06:40;101632.09;;;7.10;100.00
64632;BME280;58358;50.936;0.246;2023-06-04T05:09:05;101629.52;;;7.15;100.00
64632;BME280;58358;50.936;0.246;2023-06-04T05:11:31;101629.84;;;7.09;100.00
64632;BME280;58358;50.936;0.246;2023-06-04T05:13:56;101630.66;;;7.02;100.00
64632;BME280;58358;50.936;0.246;2023-06-04T05:16:21;101626.41;;;7.63;100.00
64632;BME280;58358;50.936;0.246;2023-06-04T05:18:47;101618.32;;;7.25;100.00
64632;BME280;58358;50.936;0.246;2023-06-04T05:21:13;101629.37;;;6.95;100.00
64632;BME280;58358;50.936;0.246;2023-06-04T05:23:38;101632.92;;;6.98;100.00
64632;BME280;58358;50.936;0.246;2023-06-04T05:26:04;101634.21;;;6.53;100.00
64632;BME280;58358;50.936;0.246;2023-06-04T05:28:29;101635.73;;;6.81;100.00
64632;BME280;58358;50.936;0.246;2023-06-04T05:30:55;101633.91;;;6.81;100.00
64632;BME280;58358;50.936;0.246;2023-06-04T05:33:21;101638.66;;;7.04;100.00
64632;BME280;58358;50.936;0.246;2023-06-04T05:35:46;101640.70;;;7.53;100.00
64632;BME280;58358;50.936;0.246;2023-06-04T05:38:12;101637.70;;;7.56;100.00
64632;BME280;58358;50.936;0.246;2023-06-04T05:40:37;101635.59;;;7.57;100.00
64632;BME280;58358;50.936;0.246;2023-06-04T05:43:03;101641.11;;;8.25;100.00
64632;BME280;58358;50.936;0.246;2023-06-04T05:45:28;101634.26;;;8.18;100.00
64632;BME280;58358;50.936;0.246;2023-06-04T05:47:54;101638.43;;;7.15;100.00
64632;BME280;58358;50.936;0.246;2023-06-04T05:50:20;101639.51;;;8.23;100.00
64632;BME280;58358;50.936;0.246;2023-06-04T05:52:45;101642.94;;;8.66;100.00
64632;BME280;58358;50.936;0.246;2023-06-04T05:55:11;101639.69;;;8.42;100.00
64632;BME280;58358;50.936;0.246;2023-06-04T05:57:36;101636.38;;;7.92;100.00
64632;BME280;58358;50.936;0.246;2023-06-04T06:00:02;101641.92;;;7.75;100.00
64632;BME280;58358;50.936;0.246;2023-06-04T06:02:27;101645.47;;;7.72;100.00
64632;BME280;58358;50.936;0.246;2023-06-04T06:04:53;101644.55;;;7.77;100.00
64632;BME280;58358;50.936;0.246;2023-06-04T06:07:18;101647.49;;;8.30;100.00
64632;BME280;58358;50.936;0.246;2023-06-04T06:09:44;101647.13;;;8.50;100.00
64632;BME280;58358;50.936;0.246;2023-06-04T06:12:09;101646.79;;;7.88;100.00
64632;BME280;58358;50.936;0.246;2023-06-04T06:14:35;101648.82;;;8.03;100.00
64632;BME280;58358;50.936;0.246;2023-06-04T06:17:00;101654.09;;;8.47;100.00
64632;BME280;58358;50.936;0.246;2023-06-04T06:19:25;101655.37;;;8.36;100.00
64632;BME280;58358;50.936;0.246;2023-06-04T06:21:51;101657.66;;;8.64;100.00
64632;BME280;58358;50.936;0.246;2023-06-04T06:24:16;101654.16;;;9.62;100.00
64632;BME280;58358;50.936;0.246;2023-06-04T06:26:42;101653.03;;;9.82;100.00
64632;BME280;58358;50.936;0.246;2023-06-04T06:29:08;101657.97;;;8.96;100.00
64632;BME280;58358;50.936;0.246;2023-06-04T06:31:34;101662.38;;;8.99;100.00
64632;BME280;58358;50.936;0.246;2023-06-04T06:33:59;101659.39;;;8.78;100.00
64632;BME280;58358;50.936;0.246;2023-06-04T06:36:25;101662.14;;;9.08;100.00
64632;BME280;58358;50.936;0.246;2023-06-04T06:38:51;101661.88;;;8.70;100.00
64632;BME280;58358;50.936;0.246;2023-06-04T06:41:17;101665.44;;;9.31;100.00
64632;BME280;58358;50.936;0.246;2023-06-04T06:43:42;101656.63;;;9.54;100.00
64632;BME280;58358;50.936;0.246;2023-06-04T06:46:07;101653.32;;;9.35;100.00
64632;BME280;58358;50.936;0.246;2023-06-04T06:48:33;101660.39;;;8.96;100.00
64632;BME280;58358;50.936;0.246;2023-06-04T06:50:58;101653.98;;;9.50;100.00
64632;BME280;58358;50.936;0.246;2023-06-04T06:53:24;101653.53;;;9.77;100.00
64632;BME280;58358;50.936;0.246;2023-06-04T06:55:49;101657.57;;;10.04;100.00
64632;BME280;58358;50.936;0.246;2023-06-04T06:58:14;101658.36;;;9.39;100.00
64632;BME280;58358;50.936;0.246;2023-06-04T07:00:40;101660.67;;;10.01;100.00
64632;BME280;58358;50.936;0.246;2023-06-04T07:03:05;101667.38;;;9.18;100.00
64632;BME280;58358;50.936;0.246;2023-06-04T07:05:31;101663.95;;;10.16;100.00
64632;BME280;58358;50.936;0.246;2023-06-04T07:07:56;101668.61;;;9.19;100.00
64632;BME280;58358;50.936;0.246;2023-06-04T07:10:21;101666.13;;;9.88;100.00
64632;BME280;58358;50.936;0.246;2023-06-04T07:12:47;101667.86;;;9.77;100.00
64632;BME280;58358;50.936;0.246;2023-06-04T07:15:13;101662.40;;;9.81;100.00
64632;BME280;58358;50.936;0.246;2023-06-04T07:17:38;101666.23;;;10.36;100.00
64632;BME280;58358;50.936;0.246;2023-06-04T07:20:05;101672.49;;;9.46;100.00
64632;BME280;58358;50.936;0.246;2023-06-04T07:22:29;101674.58;;;10.28;100.00
64632;BME280;58358;50.936;0.246;2023-06-04T07:24:55;101680.47;;;9.82;100.00
64632;BME280;58358;50.936;0.246;2023-06-04T07:27:21;101678.34;;;10.12;100.00
64632;BME280;58358;50.936;0.246;2023-06-04T07:29:46;101677.50;;;10.32;100.00
64632;BME280;58358;50.936;0.246;2023-06-04T07:32:12;101677.92;;;10.25;100.00
64632;BME280;58358;50.936;0.246;2023-06-04T07:34:38;101682.11;;;10.07;100.00
64632;BME280;58358;50.936;0.246;2023-06-04T07:37:03;101684.30;;;10.30;100.00
64632;BME280;58358;50.936;0.246;2023-06-04T07:39:28;101680.28;;;10.61;100.00
64632;BME280;58358;50.936;0.246;2023-06-04T07:41:54;101682.36;;;10.24;100.00
64632;BME280;58358;50.936;0.246;2023-06-04T07:44:19;101684.29;;;10.03;100.00
64632;BME280;58358;50.936;0.246;2023-06-04T07:46:45;101684.15;;;10.47;100.00
64632;BME280;58358;50.936;0.246;2023-06-04T07:49:11;101688.31;;;11.13;100.00
64632;BME280;58358;50.936;0.246;2023-06-04T07:51:36;101689.71;;;10.51;100.00
64632;BME280;58358;50.936;0.246;2023-06-04T07:54:02;101688.31;;;11.13;98.09
64632;BME280;58358;50.936;0.246;2023-06-04T07:56:27;101683.90;;;11.34;95.66
64632;BME280;58358;50.936;0.246;2023-06-04T07:58:53;101682.14;;;11.20;94.63
64632;BME280;58358;50.936;0.246;2023-06-04T08:01:18;101685.79;;;10.54;98.85
64632;BME280;58358;50.936;0.246;2023-06-04T08:03:44;101687.29;;;11.17;97.62
64632;BME280;58358;50.936;0.246;2023-06-04T08:06:09;101687.06;;;12.02;94.84
64632;BME280;58358;50.936;0.246;2023-06-04T08:08:35;101690.20;;;10.64;97.30
64632;BME280;58358;50.936;0.246;2023-06-04T08:11:01;101691.82;;;10.76;97.99
64632;BME280;58358;50.936;0.246;2023-06-04T08:13:26;101693.49;;;9.88;100.00
64632;BME280;58358;50.936;0.246;2023-06-04T08:15:52;101696.87;;;10.95;96.72
64632;BME280;58358;50.936;0.246;2023-06-04T08:18:18;101694.49;;;11.72;94.79
64632;BME280;58358;50.936;0.246;2023-06-04T08:20:43;101703.19;;;11.01;96.87
64632;BME280;58358;50.936;0.246;2023-06-04T08:23:09;101698.16;;;11.80;94.37
64632;BME280;58358;50.936;0.246;2023-06-04T08:25:34;101699.56;;;11.21;97.37
64632;BME280;58358;50.936;0.246;2023-06-04T08:27:59;101697.92;;;11.96;95.13
64632;BME280;58358;50.936;0.246;2023-06-04T08:30:25;101698.06;;;12.11;94.00
64632;BME280;58358;50.936;0.246;2023-06-04T08:32:50;101695.35;;;12.36;91.12
64632;BME280;58358;50.936;0.246;2023-06-04T08:35:16;101702.18;;;11.74;93.78
64632;BME280;58358;50.936;0.246;2023-06-04T08:37:41;101699.33;;;11.83;95.04
64632;BME280;58358;50.936;0.246;2023-06-04T08:40:08;101701.25;;;11.41;96.27
64632;BME280;58358;50.936;0.246;2023-06-04T08:42:38;101707.15;;;11.59;94.71
64632;BME280;58358;50.936;0.246;2023-06-04T08:44:58;101703.92;;;11.78;95.13
64632;BME280;58358;50.936;0.246;2023-06-04T08:47:24;101704.64;;;12.07;95.55
64632;BME280;58358;50.936;0.246;2023-06-04T08:49:50;101701.25;;;12.29;92.90
64632;BME280;58358;50.936;0.246;2023-06-04T08:52:14;101704.55;;;12.17;92.49
64632;BME280;58358;50.936;0.246;2023-06-04T08:54:39;101706.40;;;12.41;91.38
64632;BME280;58358;50.936;0.246;2023-06-04T08:57:05;101706.48;;;12.70;92.05
64632;BME280;58358;50.936;0.246;2023-06-04T08:59:31;101703.07;;;13.16;88.80
64632;BME280;58358;50.936;0.246;2023-06-04T09:01:57;101706.97;;;12.19;91.57
64632;BME280;58358;50.936;0.246;2023-06-04T09:04:22;101701.90;;;12.38;91.11
64632;BME280;58358;50.936;0.246;2023-06-04T09:06:49;101703.25;;;12.75;89.67
64632;BME280;58358;50.936;0.246;2023-06-04T09:09:14;101703.53;;;13.39;87.96
64632;BME280;58358;50.936;0.246;2023-06-04T09:11:44;101703.18;;;13.38;88.31
64632;BME280;58358;50.936;0.246;2023-06-04T09:14:07;101702.00;;;13.42;87.59
64632;BME280;58358;50.936;0.246;2023-06-04T09:16:30;101708.18;;;13.97;86.57
64632;BME280;58358;50.936;0.246;2023-06-04T09:18:56;101711.40;;;13.08;86.35
64632;BME280;58358;50.936;0.246;2023-06-04T09:21:22;101710.93;;;13.15;87.37
64632;BME280;58358;50.936;0.246;2023-06-04T09:23:48;101713.88;;;14.07;85.06
64632;BME280;58358;50.936;0.246;2023-06-04T09:26:14;101714.80;;;13.25;84.98
64632;BME280;58358;50.936;0.246;2023-06-04T09:28:40;101711.18;;;14.27;83.89
64632;BME280;58358;50.936;0.246;2023-06-04T09:31:04;101711.44;;;14.51;82.80
64632;BME280;58358;50.936;0.246;2023-06-04T09:33:30;101720.01;;;14.17;81.99
64632;BME280;58358;50.936;0.246;2023-06-04T09:35:56;101718.21;;;12.96;85.61
64632;BME280;58358;50.936;0.246;2023-06-04T09:38:21;101718.60;;;13.80;84.30
64632;BME280;58358;50.936;0.246;2023-06-04T09:40:47;101714.33;;;13.70;84.52
64632;BME280;58358;50.936;0.246;2023-06-04T09:43:21;101717.29;;;13.24;84.17
64632;BME280;58358;50.936;0.246;2023-06-04T09:45:38;101716.80;;;14.18;83.44
64632;BME280;58358;50.936;0.246;2023-06-04T09:48:04;101716.99;;;13.51;82.89
64632;BME280;58358;50.936;0.246;2023-06-04T09:50:31;101714.19;;;14.09;82.08
64632;BME280;58358;50.936;0.246;2023-06-04T09:52:55;101715.75;;;14.15;80.66
64632;BME280;58358;50.936;0.246;2023-06-04T09:55:20;101720.29;;;13.76;83.30
64632;BME280;58358;50.936;0.246;2023-06-04T09:57:47;101722.06;;;13.93;82.18
64632;BME280;58358;50.936;0.246;2023-06-04T10:00:12;101713.27;;;14.10;81.59
64632;BME280;58358;50.936;0.246;2023-06-04T10:02:37;101717.29;;;14.03;80.61
64632;BME280;58358;50.936;0.246;2023-06-04T10:05:03;101711.45;;;14.23;82.22
64632;BME280;58358;50.936;0.246;2023-06-04T10:07:29;101715.12;;;14.86;81.04
64632;BME280;58358;50.936;0.246;2023-06-04T10:09:54;101720.21;;;15.07;78.78
64632;BME280;58358;50.936;0.246;2023-06-04T10:12:23;101717.76;;;15.12;78.51
64632;BME280;58358;50.936;0.246;2023-06-04T10:14:51;101722.38;;;15.30;76.40
64632;BME280;58358;50.936;0.246;2023-06-04T10:17:12;101723.41;;;13.81;78.30
64632;BME280;58358;50.936;0.246;2023-06-04T10:19:38;101733.40;;;14.31;77.66
64632;BME280;58358;50.936;0.246;2023-06-04T10:22:02;101734.70;;;14.72;76.00
64632;BME280;58358;50.936;0.246;2023-06-04T10:24:28;101740.61;;;14.86;77.15
64632;BME280;58358;50.936;0.246;2023-06-04T10:26:54;101739.53;;;14.77;75.64
64632;BME280;58358;50.936;0.246;2023-06-04T10:29:20;101741.04;;;14.88;75.45
64632;BME280;58358;50.936;0.246;2023-06-04T10:31:45;101742.22;;;14.82;75.64
64632;BME280;58358;50.936;0.246;2023-06-04T10:34:11;101744.14;;;14.71;74.97
64632;BME280;58358;50.936;0.246;2023-06-04T10:36:42;101742.81;;;15.37;72.22
64632;BME280;58358;50.936;0.246;2023-06-04T10:39:02;101745.63;;;15.25;74.45
64632;BME280;58358;50.936;0.246;2023-06-04T10:41:27;101742.87;;;15.06;74.46
64632;BME280;58358;50.936;0.246;2023-06-04T10:44:00;101743.53;;;15.89;71.85
64632;BME280;58358;50.936;0.246;2023-06-04T10:46:19;101736.44;;;15.83;70.48
64632;BME280;58358;50.936;0.246;2023-06-04T10:48:47;101738.55;;;15.68;69.20
64632;BME280;58358;50.936;0.246;2023-06-04T10:51:10;101737.84;;;16.48;65.58
64632;BME280;58358;50.936;0.246;2023-06-04T10:53:37;101734.64;;;16.54;64.32
64632;BME280;58358;50.936;0.246;2023-06-04T10:56:01;101741.37;;;16.79;65.20
64632;BME280;58358;50.936;0.246;2023-06-04T10:58:32;101746.57;;;15.45;65.28
64632;BME280;58358;50.936;0.246;2023-06-04T11:00:52;101745.62;;;15.37;65.10
64632;BME280;58358;50.936;0.246;2023-06-04T11:03:19;101737.55;;;15.21;66.27
64632;BME280;58358;50.936;0.246;2023-06-04T11:05:45;101752.40;;;15.55;66.89
64632;BME280;58358;50.936;0.246;2023-06-04T11:08:10;101746.63;;;15.22;68.29
64632;BME280;58358;50.936;0.246;2023-06-04T11:10:36;101744.62;;;15.03;67.75
64632;BME280;58358;50.936;0.246;2023-06-04T11:13:02;101742.49;;;16.32;64.38
64632;BME280;58358;50.936;0.246;2023-06-04T11:15:26;101740.61;;;16.07;63.77
64632;BME280;58358;50.936;0.246;2023-06-04T11:17:53;101749.70;;;16.21;61.00
64632;BME280;58358;50.936;0.246;2023-06-04T11:20:18;101742.67;;;16.03;63.24
64632;BME280;58358;50.936;0.246;2023-06-04T11:22:50;101749.60;;;16.04;63.46
64632;BME280;58358;50.936;0.246;2023-06-04T11:25:09;101746.44;;;15.27;63.81
64632;BME280;58358;50.936;0.246;2023-06-04T11:27:35;101740.86;;;15.52;64.76
64632;BME280;58358;50.936;0.246;2023-06-04T11:30:01;101749.59;;;15.15;62.79
64632;BME280;58358;50.936;0.246;2023-06-04T11:32:26;101748.53;;;15.77;63.41
64632;BME280;58358;50.936;0.246;2023-06-04T11:37:17;101741.41;;;16.77;60.02
64632;BME280;58358;50.936;0.246;2023-06-04T11:39:42;101743.06;;;17.10;56.67
64632;BME280;58358;50.936;0.246;2023-06-04T11:42:10;101741.56;;;16.88;56.50
64632;BME280;58358;50.936;0.246;2023-06-04T11:44:34;101735.09;;;17.25;57.73
64632;BME280;58358;50.936;0.246;2023-06-04T11:46:59;101734.57;;;16.98;56.08
64632;BME280;58358;50.936;0.246;2023-06-04T11:49:25;101740.08;;;16.84;56.92
64632;BME280;58358;50.936;0.246;2023-06-04T11:51:52;101735.89;;;16.98;55.70
64632;BME280;58358;50.936;0.246;2023-06-04T11:54:17;101733.07;;;16.53;54.79
64632;BME280;58358;50.936;0.246;2023-06-04T11:56:42;101738.11;;;16.49;56.15
64632;BME280;58358;50.936;0.246;2023-06-04T11:59:07;101734.22;;;16.29;56.85
64632;BME280;58358;50.936;0.246;2023-06-04T12:01:33;101738.73;;;17.97;54.27
64632;BME280;58358;50.936;0.246;2023-06-04T12:03:58;101736.67;;;17.02;52.72
64632;BME280;58358;50.936;0.246;2023-06-04T12:06:24;101734.92;;;16.63;54.26
64632;BME280;58358;50.936;0.246;2023-06-04T12:08:51;101735.02;;;17.30;50.91
64632;BME280;58358;50.936;0.246;2023-06-04T12:11:25;101734.44;;;17.67;50.55
64632;BME280;58358;50.936;0.246;2023-06-04T12:13:41;101729.18;;;18.19;50.64
64632;BME280;58358;50.936;0.246;2023-06-04T12:16:07;101735.67;;;17.76;50.64
64632;BME280;58358;50.936;0.246;2023-06-04T12:18:32;101729.58;;;17.96;50.38
64632;BME280;58358;50.936;0.246;2023-06-04T12:20:58;101727.46;;;17.76;50.92
64632;BME280;58358;50.936;0.246;2023-06-04T12:23:23;101722.61;;;18.75;47.41
64632;BME280;58358;50.936;0.246;2023-06-04T12:25:50;101720.53;;;18.08;48.49
64632;BME280;58358;50.936;0.246;2023-06-04T12:28:17;101725.19;;;16.79;51.38
64632;BME280;58358;50.936;0.246;2023-06-04T12:30:40;101722.70;;;16.89;49.84
64632;BME280;58358;50.936;0.246;2023-06-04T12:33:06;101722.23;;;16.81;49.33
64632;BME280;58358;50.936;0.246;2023-06-04T12:35:31;101721.10;;;17.02;50.78
64632;BME280;58358;50.936;0.246;2023-06-04T12:37:57;101727.92;;;16.51;52.38
64632;BME280;58358;50.936;0.246;2023-06-04T12:40:22;101723.35;;;16.59;53.10
64632;BME280;58358;50.936;0.246;2023-06-04T12:42:50;101723.94;;;16.86;54.25